sensor_id;sensor_type;location;lat;lon;timestamp;P1;durP1;ratioP1;P2;durP2;ratioP2
47804;SDS011;33568;45.286;9.900;2023-01-20T00:01:53;11.05;;;9.60;;
47804;SDS011;33568;45.286;9.900;2023-01-20T00:04:19;11.25;;;9.82;;
47804;SDS011;33568;45.286;9.900;2023-01-20T00:06:46;14.18;;;9.85;;
47804;SDS011;33568;45.286;9.900;2023-01-20T00:11:40;10.60;;;8.45;;
47804;SDS011;33568;45.286;9.900;2023-01-20T00:14:07;12.63;;;7.57;;
47804;SDS011;33568;45.286;9.900;2023-01-20T00:16:34;8.70;;;7.82;;
47804;SDS011;33568;45.286;9.900;2023-01-20T00:19:00;8.90;;;7.20;;
47804;SDS011;33568;45.286;9.900;2023-01-20T00:21:27;8.55;;;7.45;;
47804;SDS011;33568;45.286;9.900;2023-01-20T00:26:21;10.23;;;8.88;;
47804;SDS011;33568;45.286;9.900;2023-01-20T00:28:49;13.45;;;8.90;;
47804;SDS011;33568;45.286;9.900;2023-01-20T00:31:29;11.30;;;8.65;;
47804;SDS011;33568;45.286;9.900;2023-01-20T00:33:59;9.27;;;8.20;;
47804;SDS011;33568;45.286;9.900;2023-01-20T00:36:26;12.80;;;8.85;;
47804;SDS011;33568;45.286;9.900;2023-01-20T00:38:56;10.93;;;9.65;;
47804;SDS011;33568;45.286;9.900;2023-01-20T00:41:22;11.48;;;10.00;;
47804;SDS011;33568;45.286;9.900;2023-01-20T00:43:49;14.50;;;11.18;;
47804;SDS011;33568;45.286;9.900;2023-01-20T00:46:15;14.30;;;10.82;;
47804;SDS011;33568;45.286;9.900;2023-01-20T00:51:08;13.40;;;11.10;;
47804;SDS011;33568;45.286;9.900;2023-01-20T00:53:35;13.98;;;10.88;;
47804;SDS011;33568;45.286;9.900;2023-01-20T00:56:02;12.45;;;11.18;;
47804;SDS011;33568;45.286;9.900;2023-01-20T00:58:29;13.73;;;11.73;;
47804;SDS011;33568;45.286;9.900;2023-01-20T01:00:55;18.38;;;14.18;;
47804;SDS011;33568;45.286;9.900;2023-01-20T01:03:23;16.13;;;14.05;;
47804;SDS011;33568;45.286;9.900;2023-01-20T01:05:52;14.15;;;12.48;;
47804;SDS011;33568;45.286;9.900;2023-01-20T01:10:45;14.30;;;12.80;;
47804;SDS011;33568;45.286;9.900;2023-01-20T01:13:11;16.52;;;14.75;;
47804;SDS011;33568;45.286;9.900;2023-01-20T01:18:04;23.83;;;18.73;;
47804;SDS011;33568;45.286;9.900;2023-01-20T01:20:30;18.88;;;16.88;;
47804;SDS011;33568;45.286;9.900;2023-01-20T01:22:56;15.98;;;12.95;;
47804;SDS011;33568;45.286;9.900;2023-01-20T01:27:49;16.13;;;11.02;;
47804;SDS011;33568;45.286;9.900;2023-01-20T01:30:15;16.08;;;11.65;;
47804;SDS011;33568;45.286;9.900;2023-01-20T01:32:42;12.35;;;10.73;;
47804;SDS011;33568;45.286;9.900;2023-01-20T01:35:08;14.27;;;11.45;;
47804;SDS011;33568;45.286;9.900;2023-01-20T01:37:34;13.90;;;12.15;;
47804;SDS011;33568;45.286;9.900;2023-01-20T01:40:01;15.10;;;13.25;;
47804;SDS011;33568;45.286;9.900;2023-01-20T01:42:27;14.48;;;12.98;;
47804;SDS011;33568;45.286;9.900;2023-01-20T01:45:36;15.82;;;14.25;;
47804;SDS011;33568;45.286;9.900;2023-01-20T01:50:20;17.20;;;15.52;;
47804;SDS011;33568;45.286;9.900;2023-01-20T01:52:53;18.65;;;16.45;;
47804;SDS011;33568;45.286;9.900;2023-01-20T01:55:21;19.30;;;15.70;;
47804;SDS011;33568;45.286;9.900;2023-01-20T01:57:49;22.25;;;16.70;;
47804;SDS011;33568;45.286;9.900;2023-01-20T02:00:17;20.52;;;16.55;;
47804;SDS011;33568;45.286;9.900;2023-01-20T02:02:44;18.77;;;16.75;;
47804;SDS011;33568;45.286;9.900;2023-01-20T02:05:11;20.00;;;17.05;;
47804;SDS011;33568;45.286;9.900;2023-01-20T02:07:39;19.13;;;16.42;;
47804;SDS011;33568;45.286;9.900;2023-01-20T02:10:09;20.05;;;16.15;;
47804;SDS011;33568;45.286;9.900;2023-01-20T02:12:35;17.02;;;14.77;;
47804;SDS011;33568;45.286;9.900;2023-01-20T02:15:02;19.85;;;15.82;;
47804;SDS011;33568;45.286;9.900;2023-01-20T02:17:30;17.83;;;15.52;;
47804;SDS011;33568;45.286;9.900;2023-01-20T02:22:56;14.48;;;12.98;;
47804;SDS011;33568;45.286;9.900;2023-01-20T02:34:15;16.80;;;14.77;;
47804;SDS011;33568;45.286;9.900;2023-01-20T02:44:39;15.32;;;13.70;;
47804;SDS011;33568;45.286;9.900;2023-01-20T02:47:15;14.43;;;12.55;;
47804;SDS011;33568;45.286;9.900;2023-01-20T02:52:20;15.52;;;11.65;;
47804;SDS011;33568;45.286;9.900;2023-01-20T02:54:51;13.82;;;12.32;;
47804;SDS011;33568;45.286;9.900;2023-01-20T02:57:22;15.23;;;13.55;;
47804;SDS011;33568;45.286;9.900;2023-01-20T02:59:55;16.05;;;13.15;;
47804;SDS011;33568;45.286;9.900;2023-01-20T03:02:30;15.85;;;11.70;;
47804;SDS011;33568;45.286;9.900;2023-01-20T03:05:01;15.38;;;13.20;;
47804;SDS011;33568;45.286;9.900;2023-01-20T03:07:37;13.55;;;12.13;;
47804;SDS011;33568;45.286;9.900;2023-01-20T03:10:07;14.05;;;12.60;;
47804;SDS011;33568;45.286;9.900;2023-01-20T03:12:54;14.77;;;12.95;;
47804;SDS011;33568;45.286;9.900;2023-01-20T03:15:49;12.95;;;11.60;;
47804;SDS011;33568;45.286;9.900;2023-01-20T03:18:18;14.43;;;12.98;;
47804;SDS011;33568;45.286;9.900;2023-01-20T03:23:11;15.88;;;13.48;;
47804;SDS011;33568;45.286;9.900;2023-01-20T03:25:37;16.88;;;14.20;;
47804;SDS011;33568;45.286;9.900;2023-01-20T03:28:05;18.65;;;15.77;;
47804;SDS011;33568;45.286;9.900;2023-01-20T03:30:32;18.48;;;14.18;;
47804;SDS011;33568;45.286;9.900;2023-01-20T03:32:58;17.33;;;14.05;;
47804;SDS011;33568;45.286;9.900;2023-01-20T03:35:25;13.60;;;11.98;;
47804;SDS011;33568;45.286;9.900;2023-01-20T03:37:52;16.35;;;13.75;;
47804;SDS011;33568;45.286;9.900;2023-01-20T03:40:19;14.98;;;13.38;;
47804;SDS011;33568;45.286;9.900;2023-01-20T03:42:52;14.00;;;12.60;;
47804;SDS011;33568;45.286;9.900;2023-01-20T03:45:48;15.50;;;13.20;;
47804;SDS011;33568;45.286;9.900;2023-01-20T03:48:42;13.90;;;12.52;;
47804;SDS011;33568;45.286;9.900;2023-01-20T03:51:21;15.68;;;13.25;;
47804;SDS011;33568;45.286;9.900;2023-01-20T03:54:02;16.13;;;13.90;;
47804;SDS011;33568;45.286;9.900;2023-01-20T03:56:38;14.90;;;13.40;;
47804;SDS011;33568;45.286;9.900;2023-01-20T03:59:10;13.02;;;11.60;;
47804;SDS011;33568;45.286;9.900;2023-01-20T04:01:40;15.40;;;13.40;;
47804;SDS011;33568;45.286;9.900;2023-01-20T04:04:10;15.57;;;13.88;;
47804;SDS011;33568;45.286;9.900;2023-01-20T04:06:40;14.93;;;13.00;;
47804;SDS011;33568;45.286;9.900;2023-01-20T04:09:16;16.40;;;14.65;;
47804;SDS011;33568;45.286;9.900;2023-01-20T04:11:49;16.45;;;13.82;;
47804;SDS011;33568;45.286;9.900;2023-01-20T04:14:16;15.40;;;13.80;;
47804;SDS011;33568;45.286;9.900;2023-01-20T04:19:14;21.17;;;15.45;;
47804;SDS011;33568;45.286;9.900;2023-01-20T04:21:42;18.35;;;16.27;;
47804;SDS011;33568;45.286;9.900;2023-01-20T04:26:50;43.72;;;15.40;;
47804;SDS011;33568;45.286;9.900;2023-01-20T04:29:16;209.40;;;20.33;;
47804;SDS011;33568;45.286;9.900;2023-01-20T04:31:42;209.05;;;17.95;;
47804;SDS011;33568;45.286;9.900;2023-01-20T04:34:11;26.58;;;17.63;;
47804;SDS011;33568;45.286;9.900;2023-01-20T04:36:40;19.67;;;16.67;;
47804;SDS011;33568;45.286;9.900;2023-01-20T04:39:07;23.48;;;16.95;;
47804;SDS011;33568;45.286;9.900;2023-01-20T04:41:33;18.52;;;16.52;;
47804;SDS011;33568;45.286;9.900;2023-01-20T04:44:00;30.08;;;17.02;;
47804;SDS011;33568;45.286;9.900;2023-01-20T04:46:26;18.70;;;16.05;;
47804;SDS011;33568;45.286;9.900;2023-01-20T04:48:52;18.90;;;15.43;;
47804;SDS011;33568;45.286;9.900;2023-01-20T04:51:19;17.40;;;14.90;;
47804;SDS011;33568;45.286;9.900;2023-01-20T04:53:45;17.15;;;14.95;;
47804;SDS011;33568;45.286;9.900;2023-01-20T04:56:12;16.70;;;14.88;;
47804;SDS011;33568;45.286;9.900;2023-01-20T04:58:40;17.02;;;15.20;;
47804;SDS011;33568;45.286;9.900;2023-01-20T05:01:07;20.38;;;15.13;;
47804;SDS011;33568;45.286;9.900;2023-01-20T05:03:33;21.23;;;16.23;;
47804;SDS011;33568;45.286;9.900;2023-01-20T05:06:00;20.02;;;15.75;;
47804;SDS011;33568;45.286;9.900;2023-01-20T05:10:52;16.60;;;13.38;;
47804;SDS011;33568;45.286;9.900;2023-01-20T05:13:19;19.20;;;15.23;;
47804;SDS011;33568;45.286;9.900;2023-01-20T05:15:45;16.42;;;14.68;;
47804;SDS011;33568;45.286;9.900;2023-01-20T05:18:11;17.25;;;14.77;;
47804;SDS011;33568;45.286;9.900;2023-01-20T05:23:04;14.82;;;12.70;;
47804;SDS011;33568;45.286;9.900;2023-01-20T05:25:31;23.65;;;14.75;;
47804;SDS011;33568;45.286;9.900;2023-01-20T05:27:58;21.35;;;15.95;;
47804;SDS011;33568;45.286;9.900;2023-01-20T05:30:25;18.98;;;16.05;;
47804;SDS011;33568;45.286;9.900;2023-01-20T05:32:51;94.10;;;19.48;;
47804;SDS011;33568;45.286;9.900;2023-01-20T05:37:44;334.55;;;20.98;;
47804;SDS011;33568;45.286;9.900;2023-01-20T05:40:10;445.33;;;21.30;;
47804;SDS011;33568;45.286;9.900;2023-01-20T05:42:37;582.08;;;23.73;;
47804;SDS011;33568;45.286;9.900;2023-01-20T05:47:30;682.38;;;25.50;;
47804;SDS011;33568;45.286;9.900;2023-01-20T05:49:57;838.00;;;32.38;;
47804;SDS011;33568;45.286;9.900;2023-01-20T05:52:23;725.88;;;30.67;;
47804;SDS011;33568;45.286;9.900;2023-01-20T05:54:49;628.42;;;26.73;;
47804;SDS011;33568;45.286;9.900;2023-01-20T05:57:16;639.53;;;27.83;;
47804;SDS011;33568;45.286;9.900;2023-01-20T05:59:43;733.50;;;29.60;;
47804;SDS011;33568;45.286;9.900;2023-01-20T06:02:12;775.20;;;28.63;;
47804;SDS011;33568;45.286;9.900;2023-01-20T06:04:46;467.98;;;21.48;;
47804;SDS011;33568;45.286;9.900;2023-01-20T06:07:13;507.35;;;29.88;;
47804;SDS011;33568;45.286;9.900;2023-01-20T06:09:40;491.85;;;24.33;;
47804;SDS011;33568;45.286;9.900;2023-01-20T06:12:06;327.42;;;22.40;;
47804;SDS011;33568;45.286;9.900;2023-01-20T06:16:59;334.98;;;24.42;;
47804;SDS011;33568;45.286;9.900;2023-01-20T06:19:25;377.45;;;23.50;;
47804;SDS011;33568;45.286;9.900;2023-01-20T06:21:52;444.65;;;25.27;;
47804;SDS011;33568;45.286;9.900;2023-01-20T06:24:18;402.98;;;21.88;;
47804;SDS011;33568;45.286;9.900;2023-01-20T06:26:44;529.83;;;27.60;;
47804;SDS011;33568;45.286;9.900;2023-01-20T06:29:11;561.33;;;25.83;;
47804;SDS011;33568;45.286;9.900;2023-01-20T06:31:37;444.15;;;23.40;;
47804;SDS011;33568;45.286;9.900;2023-01-20T06:34:03;546.25;;;25.45;;
47804;SDS011;33568;45.286;9.900;2023-01-20T06:36:30;511.33;;;24.92;;
47804;SDS011;33568;45.286;9.900;2023-01-20T06:38:56;399.08;;;25.50;;
47804;SDS011;33568;45.286;9.900;2023-01-20T06:41:22;380.45;;;29.52;;
47804;SDS011;33568;45.286;9.900;2023-01-20T06:43:49;363.33;;;27.63;;
47804;SDS011;33568;45.286;9.900;2023-01-20T06:46:16;274.48;;;21.33;;
47804;SDS011;33568;45.286;9.900;2023-01-20T06:48:43;230.32;;;22.60;;
47804;SDS011;33568;45.286;9.900;2023-01-20T06:51:11;230.10;;;23.63;;
47804;SDS011;33568;45.286;9.900;2023-01-20T06:53:39;203.00;;;23.25;;
47804;SDS011;33568;45.286;9.900;2023-01-20T06:56:06;408.48;;;30.35;;
47804;SDS011;33568;45.286;9.900;2023-01-20T06:58:34;460.27;;;27.17;;
47804;SDS011;33568;45.286;9.900;2023-01-20T07:01:05;486.20;;;29.40;;
47804;SDS011;33568;45.286;9.900;2023-01-20T07:03:33;576.35;;;33.47;;
47804;SDS011;33568;45.286;9.900;2023-01-20T07:08:32;543.53;;;29.60;;
47804;SDS011;33568;45.286;9.900;2023-01-20T07:10:58;664.67;;;35.22;;
47804;SDS011;33568;45.286;9.900;2023-01-20T07:13:25;572.92;;;33.17;;
47804;SDS011;33568;45.286;9.900;2023-01-20T07:18:17;597.97;;;36.45;;
47804;SDS011;33568;45.286;9.900;2023-01-20T07:20:44;725.03;;;37.63;;
47804;SDS011;33568;45.286;9.900;2023-01-20T07:25:36;392.20;;;28.73;;
47804;SDS011;33568;45.286;9.900;2023-01-20T07:28:04;520.90;;;30.83;;
47804;SDS011;33568;45.286;9.900;2023-01-20T07:30:30;442.83;;;30.00;;
47804;SDS011;33568;45.286;9.900;2023-01-20T07:32:57;524.13;;;33.00;;
47804;SDS011;33568;45.286;9.900;2023-01-20T07:35:23;683.90;;;44.53;;
47804;SDS011;33568;45.286;9.900;2023-01-20T07:40:17;703.88;;;38.80;;
47804;SDS011;33568;45.286;9.900;2023-01-20T07:42:43;683.03;;;36.67;;
47804;SDS011;33568;45.286;9.900;2023-01-20T07:45:10;633.70;;;36.03;;
47804;SDS011;33568;45.286;9.900;2023-01-20T07:47:36;654.35;;;37.70;;
47804;SDS011;33568;45.286;9.900;2023-01-20T07:50:03;546.42;;;34.85;;
47804;SDS011;33568;45.286;9.900;2023-01-20T07:52:29;663.10;;;40.28;;
47804;SDS011;33568;45.286;9.900;2023-01-20T07:54:55;438.42;;;30.85;;
47804;SDS011;33568;45.286;9.900;2023-01-20T07:57:22;277.55;;;28.83;;
47804;SDS011;33568;45.286;9.900;2023-01-20T07:59:48;527.55;;;38.05;;
47804;SDS011;33568;45.286;9.900;2023-01-20T08:02:14;444.02;;;31.92;;
47804;SDS011;33568;45.286;9.900;2023-01-20T08:04:41;377.83;;;39.60;;
47804;SDS011;33568;45.286;9.900;2023-01-20T08:07:07;402.02;;;38.05;;
47804;SDS011;33568;45.286;9.900;2023-01-20T08:12:00;620.83;;;41.00;;
47804;SDS011;33568;45.286;9.900;2023-01-20T08:14:26;311.55;;;36.40;;
47804;SDS011;33568;45.286;9.900;2023-01-20T08:16:53;340.77;;;37.85;;
47804;SDS011;33568;45.286;9.900;2023-01-20T08:19:20;503.60;;;41.63;;
47804;SDS011;33568;45.286;9.900;2023-01-20T08:21:47;533.25;;;40.58;;
47804;SDS011;33568;45.286;9.900;2023-01-20T08:26:39;347.30;;;32.40;;
47804;SDS011;33568;45.286;9.900;2023-01-20T08:29:07;374.70;;;32.75;;
47804;SDS011;33568;45.286;9.900;2023-01-20T08:31:35;575.85;;;42.70;;
47804;SDS011;33568;45.286;9.900;2023-01-20T08:34:01;423.35;;;35.50;;
47804;SDS011;33568;45.286;9.900;2023-01-20T08:38:56;373.10;;;38.15;;
47804;SDS011;33568;45.286;9.900;2023-01-20T08:41:28;381.00;;;37.83;;
47804;SDS011;33568;45.286;9.900;2023-01-20T08:43:57;434.63;;;39.97;;
47804;SDS011;33568;45.286;9.900;2023-01-20T08:46:24;552.42;;;45.25;;
47804;SDS011;33568;45.286;9.900;2023-01-20T08:48:51;424.30;;;42.97;;
47804;SDS011;33568;45.286;9.900;2023-01-20T08:53:49;435.63;;;36.47;;
47804;SDS011;33568;45.286;9.900;2023-01-20T08:56:15;402.67;;;34.53;;
47804;SDS011;33568;45.286;9.900;2023-01-20T08:58:43;460.80;;;37.85;;
47804;SDS011;33568;45.286;9.900;2023-01-20T09:03:37;415.73;;;44.90;;
47804;SDS011;33568;45.286;9.900;2023-01-20T09:06:05;408.00;;;58.42;;
47804;SDS011;33568;45.286;9.900;2023-01-20T09:08:32;286.10;;;37.22;;
47804;SDS011;33568;45.286;9.900;2023-01-20T09:11:02;249.68;;;29.00;;
47804;SDS011;33568;45.286;9.900;2023-01-20T09:13:31;388.55;;;30.60;;
47804;SDS011;33568;45.286;9.900;2023-01-20T09:15:57;359.10;;;31.60;;
47804;SDS011;33568;45.286;9.900;2023-01-20T09:18:23;366.52;;;30.75;;
47804;SDS011;33568;45.286;9.900;2023-01-20T09:20:50;383.40;;;32.80;;
47804;SDS011;33568;45.286;9.900;2023-01-20T09:23:16;290.45;;;28.52;;
47804;SDS011;33568;45.286;9.900;2023-01-20T09:28:09;199.70;;;28.50;;
47804;SDS011;33568;45.286;9.900;2023-01-20T09:30:36;341.00;;;31.63;;
47804;SDS011;33568;45.286;9.900;2023-01-20T09:33:03;212.35;;;27.33;;
47804;SDS011;33568;45.286;9.900;2023-01-20T09:35:29;313.65;;;27.42;;
47804;SDS011;33568;45.286;9.900;2023-01-20T09:37:55;278.75;;;25.00;;
47804;SDS011;33568;45.286;9.900;2023-01-20T09:40:58;255.32;;;28.15;;
47804;SDS011;33568;45.286;9.900;2023-01-20T09:44:15;300.58;;;26.85;;
47804;SDS011;33568;45.286;9.900;2023-01-20T09:47:44;267.75;;;29.40;;
47804;SDS011;33568;45.286;9.900;2023-01-20T09:53:09;208.70;;;29.05;;
47804;SDS011;33568;45.286;9.900;2023-01-20T09:58:33;155.43;;;27.85;;
47804;SDS011;33568;45.286;9.900;2023-01-20T10:01:24;167.63;;;27.58;;
47804;SDS011;33568;45.286;9.900;2023-01-20T10:04:13;93.25;;;29.33;;
47804;SDS011;33568;45.286;9.900;2023-01-20T10:06:53;137.13;;;29.45;;
47804;SDS011;33568;45.286;9.900;2023-01-20T10:09:35;107.30;;;23.05;;
47804;SDS011;33568;45.286;9.900;2023-01-20T10:12:12;121.13;;;30.25;;
47804;SDS011;33568;45.286;9.900;2023-01-20T10:17:37;86.27;;;29.63;;
47804;SDS011;33568;45.286;9.900;2023-01-20T10:20:16;79.35;;;28.48;;
47804;SDS011;33568;45.286;9.900;2023-01-20T10:22:54;87.70;;;29.80;;
47804;SDS011;33568;45.286;9.900;2023-01-20T10:25:33;95.03;;;30.15;;
47804;SDS011;33568;45.286;9.900;2023-01-20T10:28:18;80.30;;;31.75;;
47804;SDS011;33568;45.286;9.900;2023-01-20T10:30:54;80.32;;;37.03;;
47804;SDS011;33568;45.286;9.900;2023-01-20T10:33:25;147.18;;;38.58;;
47804;SDS011;33568;45.286;9.900;2023-01-20T10:35:56;119.20;;;33.03;;
47804;SDS011;33568;45.286;9.900;2023-01-20T10:41:16;120.32;;;36.67;;
47804;SDS011;33568;45.286;9.900;2023-01-20T10:43:50;80.13;;;34.38;;
47804;SDS011;33568;45.286;9.900;2023-01-20T10:57:33;72.32;;;41.08;;
47804;SDS011;33568;45.286;9.900;2023-01-20T11:00:01;65.25;;;42.30;;
47804;SDS011;33568;45.286;9.900;2023-01-20T11:02:33;55.30;;;42.03;;
47804;SDS011;33568;45.286;9.900;2023-01-20T11:05:08;47.58;;;37.65;;
47804;SDS011;33568;45.286;9.900;2023-01-20T11:07:44;31.50;;;26.10;;
47804;SDS011;33568;45.286;9.900;2023-01-20T11:10:13;32.47;;;25.58;;
47804;SDS011;33568;45.286;9.900;2023-01-20T11:12:41;31.80;;;25.42;;
47804;SDS011;33568;45.286;9.900;2023-01-20T11:15:21;31.83;;;25.92;;
47804;SDS011;33568;45.286;9.900;2023-01-20T11:20:54;36.08;;;27.13;;
47804;SDS011;33568;45.286;9.900;2023-01-20T11:23:48;44.10;;;28.55;;
47804;SDS011;33568;45.286;9.900;2023-01-20T11:31:43;41.80;;;32.45;;
47804;SDS011;33568;45.286;9.900;2023-01-20T11:34:22;50.97;;;34.90;;
47804;SDS011;33568;45.286;9.900;2023-01-20T11:39:33;51.30;;;36.08;;
47804;SDS011;33568;45.286;9.900;2023-01-20T11:44:47;52.53;;;35.78;;
47804;SDS011;33568;45.286;9.900;2023-01-20T11:47:35;47.97;;;33.70;;
47804;SDS011;33568;45.286;9.900;2023-01-20T11:57:43;32.47;;;24.92;;
47804;SDS011;33568;45.286;9.900;2023-01-20T12:00:29;29.08;;;23.95;;
47804;SDS011;33568;45.286;9.900;2023-01-20T12:02:59;32.10;;;24.80;;
47804;SDS011;33568;45.286;9.900;2023-01-20T12:05:29;33.65;;;26.75;;
47804;SDS011;33568;45.286;9.900;2023-01-20T12:08:17;37.72;;;26.35;;
47804;SDS011;33568;45.286;9.900;2023-01-20T12:11:06;32.60;;;27.20;;
47804;SDS011;33568;45.286;9.900;2023-01-20T12:13:38;29.33;;;23.73;;
47804;SDS011;33568;45.286;9.900;2023-01-20T12:16:29;32.35;;;25.80;;
47804;SDS011;33568;45.286;9.900;2023-01-20T12:18:58;29.77;;;23.88;;
47804;SDS011;33568;45.286;9.900;2023-01-20T12:21:36;29.77;;;22.73;;
47804;SDS011;33568;45.286;9.900;2023-01-20T12:27:22;21.77;;;19.23;;
47804;SDS011;33568;45.286;9.900;2023-01-20T12:29:52;21.75;;;19.42;;
47804;SDS011;33568;45.286;9.900;2023-01-20T12:32:23;23.40;;;21.00;;
47804;SDS011;33568;45.286;9.900;2023-01-20T13:01:53;30.15;;;24.58;;
47804;SDS011;33568;45.286;9.900;2023-01-20T13:13:36;26.88;;;21.60;;
47804;SDS011;33568;45.286;9.900;2023-01-20T13:16:20;27.10;;;23.60;;
47804;SDS011;33568;45.286;9.900;2023-01-20T13:21:43;26.92;;;22.48;;
47804;SDS011;33568;45.286;9.900;2023-01-20T13:26:46;28.27;;;19.40;;
47804;SDS011;33568;45.286;9.900;2023-01-20T13:32:28;20.27;;;17.10;;
47804;SDS011;33568;45.286;9.900;2023-01-20T13:34:55;30.55;;;19.77;;
47804;SDS011;33568;45.286;9.900;2023-01-20T13:39:56;28.27;;;19.17;;
47804;SDS011;33568;45.286;9.900;2023-01-20T13:50:31;23.15;;;19.95;;
47804;SDS011;33568;45.286;9.900;2023-01-20T13:53:00;25.30;;;20.58;;
47804;SDS011;33568;45.286;9.900;2023-01-20T13:58:57;21.73;;;16.25;;
47804;SDS011;33568;45.286;9.900;2023-01-20T14:01:24;21.38;;;17.70;;
47804;SDS011;33568;45.286;9.900;2023-01-20T14:04:03;19.50;;;16.35;;
47804;SDS011;33568;45.286;9.900;2023-01-20T14:06:47;32.20;;;19.77;;
47804;SDS011;33568;45.286;9.900;2023-01-20T14:09:19;22.83;;;15.95;;
47804;SDS011;33568;45.286;9.900;2023-01-20T14:11:50;29.60;;;20.42;;
47804;SDS011;33568;45.286;9.900;2023-01-20T14:14:19;26.08;;;20.95;;
47804;SDS011;33568;45.286;9.900;2023-01-20T14:16:47;23.10;;;18.85;;
47804;SDS011;33568;45.286;9.900;2023-01-20T14:19:17;19.65;;;16.67;;
47804;SDS011;33568;45.286;9.900;2023-01-20T14:21:54;33.17;;;23.88;;
47804;SDS011;33568;45.286;9.900;2023-01-20T14:24:45;25.23;;;20.25;;
47804;SDS011;33568;45.286;9.900;2023-01-20T14:27:16;21.45;;;18.98;;
47804;SDS011;33568;45.286;9.900;2023-01-20T14:29:44;27.10;;;22.27;;
47804;SDS011;33568;45.286;9.900;2023-01-20T14:32:14;21.55;;;18.13;;
47804;SDS011;33568;45.286;9.900;2023-01-20T14:34:46;23.35;;;20.42;;
47804;SDS011;33568;45.286;9.900;2023-01-20T14:37:32;21.48;;;17.73;;
47804;SDS011;33568;45.286;9.900;2023-01-20T14:42:37;21.92;;;18.98;;
47804;SDS011;33568;45.286;9.900;2023-01-20T14:45:17;22.27;;;19.30;;
47804;SDS011;33568;45.286;9.900;2023-01-20T14:47:45;20.55;;;17.45;;
47804;SDS011;33568;45.286;9.900;2023-01-20T14:50:12;22.45;;;19.02;;
47804;SDS011;33568;45.286;9.900;2023-01-20T14:52:40;29.27;;;25.17;;
47804;SDS011;33568;45.286;9.900;2023-01-20T14:55:26;24.52;;;19.77;;
47804;SDS011;33568;45.286;9.900;2023-01-20T14:57:54;17.67;;;15.15;;
47804;SDS011;33568;45.286;9.900;2023-01-20T15:00:21;21.58;;;14.93;;
47804;SDS011;33568;45.286;9.900;2023-01-20T15:02:55;16.65;;;14.30;;
47804;SDS011;33568;45.286;9.900;2023-01-20T15:05:53;19.13;;;14.55;;
47804;SDS011;33568;45.286;9.900;2023-01-20T15:13:51;15.25;;;13.32;;
47804;SDS011;33568;45.286;9.900;2023-01-20T15:21:41;24.38;;;18.27;;
47804;SDS011;33568;45.286;9.900;2023-01-20T15:26:43;17.33;;;13.80;;
47804;SDS011;33568;45.286;9.900;2023-01-20T15:29:29;19.40;;;13.90;;
47804;SDS011;33568;45.286;9.900;2023-01-20T15:31:57;13.80;;;12.23;;
47804;SDS011;33568;45.286;9.900;2023-01-20T15:34:26;15.75;;;12.73;;
47804;SDS011;33568;45.286;9.900;2023-01-20T15:36:53;17.73;;;13.63;;
47804;SDS011;33568;45.286;9.900;2023-01-20T15:39:21;16.52;;;12.80;;
47804;SDS011;33568;45.286;9.900;2023-01-20T15:41:49;15.60;;;12.15;;
47804;SDS011;33568;45.286;9.900;2023-01-20T15:44:23;13.82;;;12.13;;
47804;SDS011;33568;45.286;9.900;2023-01-20T15:46:50;15.85;;;13.20;;
47804;SDS011;33568;45.286;9.900;2023-01-20T15:49:17;16.02;;;13.45;;
47804;SDS011;33568;45.286;9.900;2023-01-20T15:51:44;17.52;;;13.40;;
47804;SDS011;33568;45.286;9.900;2023-01-20T15:54:11;19.63;;;14.15;;
47804;SDS011;33568;45.286;9.900;2023-01-20T15:56:38;14.98;;;12.88;;
47804;SDS011;33568;45.286;9.900;2023-01-20T15:59:16;23.17;;;12.90;;
47804;SDS011;33568;45.286;9.900;2023-01-20T16:01:45;19.38;;;12.98;;
47804;SDS011;33568;45.286;9.900;2023-01-20T16:04:14;23.77;;;16.48;;
47804;SDS011;33568;45.286;9.900;2023-01-20T16:06:40;21.50;;;15.98;;
47804;SDS011;33568;45.286;9.900;2023-01-20T16:09:28;19.40;;;16.67;;
47804;SDS011;33568;45.286;9.900;2023-01-20T16:11:58;24.35;;;16.67;;
47804;SDS011;33568;45.286;9.900;2023-01-20T16:14:24;23.85;;;16.67;;
47804;SDS011;33568;45.286;9.900;2023-01-20T16:16:51;56.63;;;34.97;;
47804;SDS011;33568;45.286;9.900;2023-01-20T16:19:17;77.15;;;52.67;;
47804;SDS011;33568;45.286;9.900;2023-01-20T16:21:43;49.92;;;33.60;;
47804;SDS011;33568;45.286;9.900;2023-01-20T16:24:10;37.25;;;28.45;;
47804;SDS011;33568;45.286;9.900;2023-01-20T16:26:37;37.40;;;27.65;;
47804;SDS011;33568;45.286;9.900;2023-01-20T16:29:03;51.60;;;36.97;;
47804;SDS011;33568;45.286;9.900;2023-01-20T16:31:30;47.88;;;36.15;;
47804;SDS011;33568;45.286;9.900;2023-01-20T16:33:58;44.42;;;32.15;;
47804;SDS011;33568;45.286;9.900;2023-01-20T16:36:24;42.42;;;33.13;;
47804;SDS011;33568;45.286;9.900;2023-01-20T16:38:50;40.90;;;30.90;;
47804;SDS011;33568;45.286;9.900;2023-01-20T16:41:21;52.90;;;35.13;;
47804;SDS011;33568;45.286;9.900;2023-01-20T16:43:52;43.15;;;33.75;;
47804;SDS011;33568;45.286;9.900;2023-01-20T16:46:20;44.03;;;32.75;;
47804;SDS011;33568;45.286;9.900;2023-01-20T16:48:49;50.03;;;35.58;;
47804;SDS011;33568;45.286;9.900;2023-01-20T16:51:21;55.90;;;37.53;;
47804;SDS011;33568;45.286;9.900;2023-01-20T16:53:51;71.38;;;44.85;;
47804;SDS011;33568;45.286;9.900;2023-01-20T16:56:18;77.68;;;45.92;;
47804;SDS011;33568;45.286;9.900;2023-01-20T16:58:50;74.07;;;45.08;;
47804;SDS011;33568;45.286;9.900;2023-01-20T17:01:17;72.60;;;45.80;;
47804;SDS011;33568;45.286;9.900;2023-01-20T17:03:48;71.55;;;44.72;;
47804;SDS011;33568;45.286;9.900;2023-01-20T17:06:17;66.20;;;41.30;;
47804;SDS011;33568;45.286;9.900;2023-01-20T17:08:47;57.58;;;34.90;;
47804;SDS011;33568;45.286;9.900;2023-01-20T17:11:15;46.88;;;32.60;;
47804;SDS011;33568;45.286;9.900;2023-01-20T17:13:42;49.30;;;33.35;;
47804;SDS011;33568;45.286;9.900;2023-01-20T17:16:09;43.90;;;28.98;;
47804;SDS011;33568;45.286;9.900;2023-01-20T17:18:35;41.97;;;28.35;;
47804;SDS011;33568;45.286;9.900;2023-01-20T17:21:03;38.40;;;29.13;;
47804;SDS011;33568;45.286;9.900;2023-01-20T17:23:31;34.67;;;22.00;;
47804;SDS011;33568;45.286;9.900;2023-01-20T17:26:00;28.13;;;19.73;;
47804;SDS011;33568;45.286;9.900;2023-01-20T17:28:27;22.17;;;17.92;;
47804;SDS011;33568;45.286;9.900;2023-01-20T17:30:53;24.85;;;17.08;;
47804;SDS011;33568;45.286;9.900;2023-01-20T17:33:21;18.63;;;15.80;;
47804;SDS011;33568;45.286;9.900;2023-01-20T17:35:54;21.67;;;17.08;;
47804;SDS011;33568;45.286;9.900;2023-01-20T17:38:24;22.58;;;16.23;;
47804;SDS011;33568;45.286;9.900;2023-01-20T17:40:52;25.27;;;16.63;;
47804;SDS011;33568;45.286;9.900;2023-01-20T17:43:18;24.33;;;16.90;;
47804;SDS011;33568;45.286;9.900;2023-01-20T17:45:44;27.17;;;18.67;;
47804;SDS011;33568;45.286;9.900;2023-01-20T17:48:11;26.30;;;17.45;;
47804;SDS011;33568;45.286;9.900;2023-01-20T17:50:37;28.02;;;19.08;;
47804;SDS011;33568;45.286;9.900;2023-01-20T17:53:03;28.67;;;19.02;;
47804;SDS011;33568;45.286;9.900;2023-01-20T17:55:30;29.10;;;19.73;;
47804;SDS011;33568;45.286;9.900;2023-01-20T17:57:56;22.73;;;16.92;;
47804;SDS011;33568;45.286;9.900;2023-01-20T18:00:22;21.10;;;16.67;;
47804;SDS011;33568;45.286;9.900;2023-01-20T18:02:49;23.92;;;16.83;;